Time;durP1;ratioP1;P1;durP2;ratioP2;P2;SDS_P1;SDS_P2;PMS_P1;PMS_P2;Temp;Humidity;BMP_temperature;BMP_pressure;BME280_temperature;BME280_humidity;BME280_pressure;Samples;Min_cycle;Max_cycle;Signal;HPM_P1;HPM_P2
2022/12/13 00:00:13;;;;;;;283.47;52.00;;;;;;;-5.70;100.00;146011.59;5026206;28;20052;-67
2022/12/13 00:02:40;;;;;;;276.30;48.77;;;;;;;-5.69;100.00;146014.19;5017231;28;20377;-67
2022/12/13 00:05:06;;;;;;;276.47;50.07;;;;;;;-5.68;100.00;146016.75;5029599;28;20796;-67
2022/12/13 00:07:33;;;;;;;292.10;52.60;;;;;;;-5.68;100.00;146016.75;5014852;28;20705;-67
2022/12/13 00:09:58;;;;;;;260.07;49.63;;;;;;;-5.71;100.00;146010.31;5017800;28;20779;-67
2022/12/13 00:12:24;;;;;;;265.17;51.57;;;;;;;-5.71;100.00;146009.03;5013090;28;20370;-67
2022/12/13 00:14:49;;;;;;;277.10;53.37;;;;;;;-5.72;100.00;146007.78;5015493;28;20370;-66
2022/12/13 00:17:14;;;;;;;289.67;52.07;;;;;;;-5.76;100.00;145996.31;5015622;28;20053;-67
2022/12/13 00:19:40;;;;;;;265.30;50.13;;;;;;;-5.87;100.00;145968.25;5019817;28;20493;-67
2022/12/13 00:22:05;;;;;;;249.97;48.50;;;;;;;-6.03;100.00;145928.75;5012423;28;20089;-67
2022/12/13 00:24:30;;;;;;;262.07;50.40;;;;;;;-6.04;100.00;145927.50;5013224;28;20037;-66
2022/12/13 00:26:56;;;;;;;252.57;49.30;;;;;;;-6.07;100.00;145919.81;5014289;28;20056;-67
2022/12/13 00:29:21;;;;;;;275.63;48.87;;;;;;;-6.04;100.00;145927.50;5018568;28;20113;-67
2022/12/13 00:31:47;;;;;;;255.80;47.13;;;;;;;-5.99;100.00;145938.94;5015792;28;20482;-67
2022/12/13 00:34:12;;;;;;;268.23;50.17;;;;;;;-5.90;100.00;145963.16;5028605;28;20072;-67
2022/12/13 00:36:37;;;;;;;257.90;49.33;;;;;;;-5.86;100.00;145970.78;5025895;28;20021;-67
2022/12/13 00:39:03;;;;;;;264.20;49.27;;;;;;;-5.81;100.00;145983.56;5022731;28;20044;-66
2022/12/13 00:41:31;;;;;;;248.30;49.10;;;;;;;-5.77;100.00;145993.75;5011576;28;20038;-67
2022/12/13 00:43:57;;;;;;;251.37;48.47;;;;;;;-5.80;100.00;145986.13;5023227;28;20113;-67
2022/12/13 00:46:23;;;;;;;259.67;49.57;;;;;;;-5.84;100.00;145977.16;5019738;28;20756;-67
2022/12/13 00:48:51;;;;;;;244.83;50.17;;;;;;;-5.82;100.00;145982.25;5027301;28;20363;-66
2022/12/13 00:51:16;;;;;;;262.37;51.50;;;;;;;-5.98;100.00;145942.78;5016306;28;20038;-67
2022/12/13 00:53:42;;;;;;;277.57;50.27;;;;;;;-6.00;100.00;145937.69;5016141;28;20285;-67
2022/12/13 00:56:13;;;;;;;268.73;49.23;;;;;;;-6.07;100.00;145919.81;5027726;28;20544;-67
2022/12/13 00:58:39;;;;;;;270.73;50.45;;;;;;;-6.02;100.00;145932.59;5030170;28;20132;-67
2022/12/13 01:01:07;;;;;;;267.50;50.10;;;;;;;-6.02;100.00;145931.31;5024901;28;20030;-67
2022/12/13 01:03:33;;;;;;;254.93;46.97;;;;;;;-6.00;100.00;145937.69;5013337;28;20276;-67
2022/12/13 01:05:58;;;;;;;252.27;49.47;;;;;;;-5.97;100.00;145944.03;5022548;28;20379;-66
2022/12/13 01:08:24;;;;;;;228.13;48.07;;;;;;;-5.98;100.00;145942.78;5022632;28;20536;-67
2022/12/13 01:10:49;;;;;;;257.80;48.90;;;;;;;-6.02;100.00;145932.59;5013255;28;20038;-67
2022/12/13 01:13:15;;;;;;;248.67;49.60;;;;;;;-6.07;100.00;145919.81;5022477;28;20040;-67
2022/12/13 01:15:44;;;;;;;235.80;47.03;;;;;;;-6.07;100.00;145919.81;5015799;28;20060;-67
2022/12/13 01:18:12;;;;;;;243.33;45.80;;;;;;;-6.04;100.00;145927.50;5015375;28;20377;-67
2022/12/13 01:20:37;;;;;;;228.43;47.47;;;;;;;-6.00;100.00;145936.41;5017255;28;20276;-66
2022/12/13 01:23:04;;;;;;;229.23;48.30;;;;;;;-6.00;100.00;145937.69;5017495;28;20716;-67
2022/12/13 01:25:32;;;;;;;244.87;46.43;;;;;;;-6.03;100.00;145930.03;5014283;28;20038;-67
2022/12/13 01:27:58;;;;;;;223.23;46.10;;;;;;;-6.10;100.00;145912.16;5021838;28;20326;-67
2022/12/13 01:30:23;;;;;;;225.33;44.27;;;;;;;-6.11;100.00;145908.34;5012486;28;20609;-67
2022/12/13 01:32:48;;;;;;;216.97;43.73;;;;;;;-6.11;100.00;145909.63;5022451;28;20306;-67
2022/12/13 01:35:14;;;;;;;219.57;48.07;;;;;;;-6.12;100.00;145907.06;5028475;28;20373;-67
2022/12/13 01:37:39;;;;;;;234.27;45.30;;;;;;;-6.15;100.00;145899.44;5019410;28;20083;-67
2022/12/13 01:40:05;;;;;;;219.87;45.57;;;;;;;-6.14;100.00;145901.97;5015343;28;20029;-67
2022/12/13 01:42:30;;;;;;;218.57;47.23;;;;;;;-6.11;100.00;145909.63;5023270;28;20029;-67
2022/12/13 01:45:02;;;;;;;237.40;48.03;;;;;;;-6.06;100.00;145922.34;5019299;28;20397;-67
2022/12/13 01:47:35;;;;;;;215.30;47.28;;;;;;;-6.23;100.00;145879.00;5026626;28;20078;-67
2022/12/13 01:50:05;;;;;;;215.27;45.80;;;;;;;-6.32;100.00;145856.03;5031449;28;20021;-67
2022/12/13 01:52:33;;;;;;;233.67;46.87;;;;;;;-6.40;100.00;145835.66;5017746;28;20292;-66
2022/12/13 01:55:00;;;;;;;226.13;45.30;;;;;;;-6.51;100.00;145810.16;5023966;28;20996;-67
2022/12/13 01:57:26;;;;;;;220.97;43.77;;;;;;;-6.59;100.00;145789.75;5015356;28;20281;-67
2022/12/13 01:59:53;;;;;;;220.60;45.93;;;;;;;-6.68;100.00;145766.81;5015098;28;20276;-66
2022/12/13 02:02:20;;;;;;;217.00;45.07;;;;;;;-6.70;100.00;145761.72;5062419;23;20313;-72
2022/12/13 02:05:01;;;;;;;227.00;44.50;;;;;;;-6.78;100.00;145741.34;5046247;28;20330;-70
2022/12/13 02:07:29;;;;;;;192.48;37.22;;;;;;;-6.79;100.00;145740.03;5039448;28;20307;-70
2022/12/13 02:09:58;;;;;;;109.47;32.30;;;;;;;-6.72;100.00;145755.34;5040572;28;20029;-70
2022/12/13 02:12:30;;;;;;;86.97;30.03;;;;;;;-6.65;100.00;145774.47;5041945;28;20727;-70
2022/12/13 02:15:02;;;;;;;101.90;31.02;;;;;;;-6.65;100.00;145774.47;5052145;28;20321;-70
2022/12/13 02:17:37;;;;;;;91.77;30.17;;;;;;;-6.66;100.00;145770.63;5042834;28;20110;-70
2022/12/13 02:20:33;;;;;;;88.10;29.73;;;;;;;-6.67;100.00;145769.34;5045018;28;20646;-71
2022/12/13 02:23:10;;;;;;;91.50;28.03;;;;;;;-6.64;100.00;145777.03;5044825;28;20272;-70
2022/12/13 02:25:54;;;;;;;85.73;27.83;;;;;;;-6.73;100.00;145752.81;5050283;28;20332;-70
2022/12/13 02:28:58;;;;;;;94.83;28.77;;;;;;;-6.77;100.00;145743.91;5036110;28;20291;-71
2022/12/13 02:31:32;;;;;;;66.80;25.70;;;;;;;-6.91;100.00;145708.16;5045539;28;20279;-70
2022/12/13 02:34:13;;;;;;;80.93;26.97;;;;;;;-6.97;100.00;145692.91;5040738;28;20892;-70
2022/12/13 02:37:21;;;;;;;73.78;27.35;;;;;;;-7.12;100.00;145657.22;5038470;28;20265;-70
2022/12/13 02:40:00;;;;;;;81.63;26.33;;;;;;;-7.28;100.00;145616.44;5037132;28;20438;-71
2022/12/13 02:42:36;;;;;;;85.47;26.43;;;;;;;-7.01;100.00;145682.72;5035007;28;20324;-70
2022/12/13 02:45:12;;;;;;;79.93;27.37;;;;;;;-6.80;100.00;145736.22;5039026;28;20283;-70
2022/12/13 02:47:45;;;;;;;86.27;28.57;;;;;;;-6.73;100.00;145754.06;5048700;28;20282;-69
2022/12/13 02:50:13;;;;;;;97.00;28.67;;;;;;;-6.68;100.00;145766.81;5042725;28;20283;-70
2022/12/13 02:52:41;;;;;;;86.10;29.10;;;;;;;-6.65;100.00;145774.47;5038584;28;20256;-70
2022/12/13 02:55:11;;;;;;;88.23;29.07;;;;;;;-6.63;100.00;145778.31;5049564;28;20266;-70
2022/12/13 02:57:39;;;;;;;91.83;29.83;;;;;;;-6.72;100.00;145756.63;5050524;28;20264;-69
2022/12/13 03:00:17;;;;;;;82.80;28.50;;;;;;;-6.76;100.00;145745.16;5033580;28;20383;-71
2022/12/13 03:03:12;;;;;;;93.57;29.00;;;;;;;-6.90;100.00;145712.03;5046600;28;20770;-70
2022/12/13 03:09:10;;;;;;;79.90;27.07;;;;;;;-6.79;100.00;145740.03;5048355;28;20302;-70
2022/12/13 03:15:43;;;;;;;72.93;25.57;;;;;;;-6.86;100.00;145720.94;5023412;28;20270;-71
2022/12/13 03:18:17;;;;;;;74.53;25.87;;;;;;;-7.02;100.00;145680.19;5051368;28;20260;-70
2022/12/13 03:20:51;;;;;;;83.27;26.70;;;;;;;-7.01;100.00;145682.72;5047816;28;20294;-70
2022/12/13 03:23:18;;;;;;;77.67;26.37;;;;;;;-6.98;100.00;145690.34;5050632;28;20275;-69
2022/12/13 03:25:46;;;;;;;95.70;28.03;;;;;;;-6.96;100.00;145696.72;5051972;28;20331;-70
2022/12/13 03:28:11;;;;;;;93.47;27.67;;;;;;;-6.98;100.00;145690.34;5049516;28;20254;-70
2022/12/13 03:30:37;;;;;;;78.20;27.47;;;;;;;-6.99;100.00;145687.81;5048001;28;20355;-71
2022/12/13 03:33:03;;;;;;;87.20;29.10;;;;;;;-7.09;100.00;145664.88;5046123;28;20029;-71
2022/12/13 03:35:29;;;;;;;84.37;28.07;;;;;;;-7.04;100.00;145675.03;5048537;28;20380;-70
2022/12/13 03:37:54;;;;;;;82.07;27.63;;;;;;;-7.04;100.00;145675.03;5051889;28;20024;-71
2022/12/13 03:40:20;;;;;;;81.70;26.47;;;;;;;-7.18;100.00;145641.94;5048623;28;20068;-72
2022/12/13 03:42:46;;;;;;;81.33;26.13;;;;;;;-7.23;100.00;145629.19;5047534;28;20052;-73
2022/12/13 03:45:12;;;;;;;88.10;26.87;;;;;;;-7.17;100.00;145644.47;5047871;28;20751;-72
2022/12/13 03:47:37;;;;;;;75.53;25.60;;;;;;;-7.09;100.00;145664.88;5047901;28;20294;-72
2022/12/13 03:50:03;;;;;;;74.43;28.07;;;;;;;-7.07;100.00;145668.69;5046357;28;20036;-72
2022/12/13 03:52:28;;;;;;;76.63;27.37;;;;;;;-7.00;100.00;145685.28;5043408;28;20035;-72
2022/12/13 03:54:53;;;;;;;79.73;26.37;;;;;;;-6.99;100.00;145687.81;5052750;28;20388;-72
2022/12/13 03:57:19;;;;;;;89.33;27.40;;;;;;;-6.93;100.00;145703.09;5050752;28;20032;-72
2022/12/13 03:59:44;;;;;;;87.70;27.40;;;;;;;-6.92;100.00;145705.63;5049819;28;20032;-72
2022/12/13 04:02:09;;;;;;;78.37;25.63;;;;;;;-6.92;100.00;145705.63;5044823;28;20029;-72
2022/12/13 04:04:35;;;;;;;76.67;24.80;;;;;;;-6.89;100.00;145713.31;5048414;28;20112;-72
2022/12/13 04:07:00;;;;;;;71.40;23.33;;;;;;;-6.86;100.00;145720.94;5050575;28;20037;-72
2022/12/13 04:09:25;;;;;;;85.37;26.77;;;;;;;-6.88;100.00;145715.84;5049809;28;20107;-72
2022/12/13 04:14:35;;;;;;;74.33;25.37;;;;;;;-7.00;100.00;145685.28;5044120;28;20031;-72
2022/12/13 04:17:00;;;;;;;71.93;24.90;;;;;;;-7.11;100.00;145659.78;5040838;28;20268;-72
2022/12/13 04:19:25;;;;;;;78.73;25.93;;;;;;;-7.12;100.00;145657.22;5042995;28;20027;-72
2022/12/13 04:21:53;;;;;;;75.33;24.23;;;;;;;-7.12;100.00;145657.22;5047689;28;20494;-73
2022/12/13 04:24:19;;;;;;;83.47;26.40;;;;;;;-7.20;100.00;145636.84;5044465;28;20145;-73
2022/12/13 04:26:44;;;;;;;78.20;26.00;;;;;;;-7.11;100.00;145659.78;5053286;28;20299;-72
2022/12/13 04:29:10;;;;;;;75.93;25.07;;;;;;;-7.11;100.00;145659.78;5045623;28;20277;-72
2022/12/13 04:31:35;;;;;;;75.70;24.40;;;;;;;-7.14;100.00;145652.16;5049233;28;20021;-72
2022/12/13 04:34:01;;;;;;;67.23;23.43;;;;;;;-7.14;100.00;145650.88;5048167;28;20041;-72
2022/12/13 04:36:26;;;;;;;80.50;26.97;;;;;;;-7.11;100.00;145659.78;5044766;28;20112;-72
2022/12/13 04:38:51;;;;;;;77.97;26.03;;;;;;;-7.16;100.00;145647.00;5044268;28;20329;-73
2022/12/13 04:41:18;;;;;;;75.97;25.97;;;;;;;-7.25;100.00;145622.84;5048058;28;20094;-72
2022/12/13 04:43:49;;;;;;;78.83;24.53;;;;;;;-7.32;100.00;145605.00;5051018;28;20096;-73
2022/12/13 04:46:14;;;;;;;76.47;25.73;;;;;;;-7.17;100.00;145644.47;5046463;28;20288;-72
2022/12/13 04:48:39;;;;;;;73.83;24.27;;;;;;;-7.11;100.00;145658.50;5045555;28;20279;-72
2022/12/13 04:51:05;;;;;;;76.87;26.67;;;;;;;-7.07;100.00;145667.41;5047803;28;20053;-72
2022/12/13 04:53:30;;;;;;;83.93;26.47;;;;;;;-7.06;100.00;145669.97;5045750;28;20044;-73
2022/12/13 04:55:56;;;;;;;76.27;26.20;;;;;;;-7.06;100.00;145669.97;5052681;28;20013;-73
2022/12/13 04:58:21;;;;;;;82.90;27.83;;;;;;;-7.12;100.00;145657.22;5048885;28;20037;-72
2022/12/13 05:00:46;;;;;;;72.50;25.63;;;;;;;-7.14;100.00;145652.16;5049396;28;20024;-72
2022/12/13 05:03:12;;;;;;;73.97;26.37;;;;;;;-7.11;100.00;145659.78;5049859;28;20036;-72
2022/12/13 05:05:39;;;;;;;78.93;26.63;;;;;;;-7.03;100.00;145678.88;5044979;28;20060;-73
2022/12/13 05:08:05;;;;;;;81.50;25.87;;;;;;;-6.98;100.00;145690.34;5047441;28;20036;-72
2022/12/13 05:10:30;;;;;;;71.37;26.27;;;;;;;-6.93;100.00;145704.34;5045285;28;20276;-73
2022/12/13 05:12:58;;;;;;;80.57;27.77;;;;;;;-6.89;100.00;145713.31;5041351;28;20041;-73
2022/12/13 05:15:23;;;;;;;77.63;25.73;;;;;;;-6.78;100.00;145741.34;5047005;28;20506;-72
2022/12/13 05:17:48;;;;;;;84.10;27.80;;;;;;;-6.72;100.00;145756.63;5048584;28;20271;-72
2022/12/13 05:20:14;;;;;;;80.63;27.57;;;;;;;-6.70;100.00;145761.72;5045072;28;20032;-72
2022/12/13 05:22:39;;;;;;;71.83;25.57;;;;;;;-6.69;100.00;145764.25;5046229;28;20040;-73
2022/12/13 05:25:05;;;;;;;82.13;26.43;;;;;;;-6.68;100.00;145766.81;5048310;28;20586;-73
2022/12/13 05:27:31;;;;;;;80.20;27.10;;;;;;;-6.70;100.00;145761.72;5045540;28;20090;-73
2022/12/13 05:29:56;;;;;;;78.37;26.17;;;;;;;-6.76;100.00;145746.44;5046539;28;20267;-72
2022/12/13 05:32:22;;;;;;;74.83;25.90;;;;;;;-6.91;100.00;145708.16;5045465;28;20042;-73
2022/12/13 05:34:47;;;;;;;70.40;26.53;;;;;;;-7.00;100.00;145685.28;5049385;28;20044;-70
2022/12/13 05:37:12;;;;;;;76.20;25.73;;;;;;;-7.01;100.00;145682.72;5047462;28;20031;-72
2022/12/13 05:39:38;;;;;;;74.60;25.80;;;;;;;-7.08;100.00;145666.13;5043318;28;20025;-73
2022/12/13 05:42:03;;;;;;;81.47;27.20;;;;;;;-7.01;100.00;145682.72;5039906;28;20021;-73
2022/12/13 05:44:30;;;;;;;77.17;25.73;;;;;;;-7.02;100.00;145680.19;5047012;28;20362;-71
2022/12/13 05:46:56;;;;;;;75.70;26.00;;;;;;;-7.05;100.00;145673.78;5040812;28;20603;-71
2022/12/13 05:49:21;;;;;;;86.67;24.60;;;;;;;-7.13;100.00;145653.41;5049865;28;20362;-71
2022/12/13 05:51:47;;;;;;;77.27;26.07;;;;;;;-7.16;100.00;145647.00;5043677;28;20052;-71
2022/12/13 05:54:12;;;;;;;81.63;26.23;;;;;;;-7.23;100.00;145629.19;5044574;28;20027;-71
2022/12/13 05:56:37;;;;;;;67.37;24.47;;;;;;;-7.38;100.00;145591.00;5046001;28;20040;-71
2022/12/13 05:59:03;;;;;;;74.87;26.37;;;;;;;-7.38;100.00;145592.28;5047282;28;20041;-71
2022/12/13 06:01:28;;;;;;;63.67;24.30;;;;;;;-7.42;100.00;145580.78;5042191;28;20096;-71
2022/12/13 06:03:53;;;;;;;76.80;25.50;;;;;;;-7.44;100.00;145575.69;5048858;28;20086;-71
2022/12/13 06:06:20;;;;;;;77.13;25.27;;;;;;;-7.36;100.00;145596.09;5048353;28;20033;-72
2022/12/13 06:08:45;;;;;;;78.70;25.80;;;;;;;-7.38;100.00;145591.00;5043387;28;20024;-71
2022/12/13 06:11:11;;;;;;;74.50;25.73;;;;;;;-7.38;100.00;145591.00;5047517;28;20279;-72
2022/12/13 06:13:36;;;;;;;66.17;23.43;;;;;;;-7.38;100.00;145592.28;5041466;28;20017;-72
2022/12/13 06:16:04;;;;;;;68.53;22.20;;;;;;;-7.31;100.00;145607.53;5041910;28;20104;-71
2022/12/13 06:18:32;;;;;;;68.07;22.67;;;;;;;-7.23;100.00;145629.19;5040620;28;20743;-71
2022/12/13 06:21:00;;;;;;;73.47;25.17;;;;;;;-7.22;100.00;145631.75;5047677;28;20342;-70
2022/12/13 06:23:26;;;;;;;71.43;24.73;;;;;;;-7.26;100.00;145621.56;5055555;28;20255;-71
2022/12/13 06:25:52;;;;;;;64.20;24.27;;;;;;;-7.31;100.00;145607.53;5047645;28;20280;-71
2022/12/13 06:28:17;;;;;;;69.90;23.23;;;;;;;-7.41;100.00;145583.31;5043611;28;20307;-71
2022/12/13 06:30:43;;;;;;;70.70;24.43;;;;;;;-7.44;100.00;145575.69;5034413;28;20032;-71
2022/12/13 06:33:09;;;;;;;72.70;24.63;;;;;;;-7.40;100.00;145585.88;5033953;28;20446;-71
2022/12/13 06:35:35;;;;;;;72.33;25.00;;;;;;;-7.40;100.00;145585.88;5036263;28;20021;-72
2022/12/13 06:38:00;;;;;;;69.87;24.47;;;;;;;-7.54;100.00;145550.22;5049083;28;20585;-72
2022/12/13 06:40:25;;;;;;;71.83;24.17;;;;;;;-7.63;100.00;145527.28;5034294;28;20168;-72
2022/12/13 06:42:51;;;;;;;63.07;22.87;;;;;;;-7.68;100.00;145517.09;5037930;28;20023;-72
2022/12/13 06:45:16;;;;;;;75.77;24.70;;;;;;;-7.75;100.00;145499.31;5045022;28;20039;-72
2022/12/13 06:47:42;;;;;;;71.07;23.53;;;;;;;-7.65;100.00;145522.19;5041320;28;20155;-72
2022/12/13 06:50:08;;;;;;;72.17;22.87;;;;;;;-7.59;100.00;145537.50;5034218;28;20025;-72
2022/12/13 06:52:34;;;;;;;69.53;24.20;;;;;;;-7.51;100.00;145559.16;5048521;28;20087;-72
2022/12/13 06:54:59;;;;;;;71.90;24.13;;;;;;;-7.49;100.00;145562.97;5054241;28;20267;-72
2022/12/13 06:57:24;;;;;;;74.43;24.87;;;;;;;-7.51;100.00;145559.16;5038280;28;20108;-72
2022/12/13 06:59:50;;;;;;;65.83;22.73;;;;;;;-7.46;100.00;145570.59;5035489;28;20033;-72
2022/12/13 07:02:15;;;;;;;69.30;23.80;;;;;;;-7.44;100.00;145575.69;5046630;28;20162;-72
2022/12/13 07:04:41;;;;;;;67.80;24.10;;;;;;;-7.51;100.00;145557.84;5052303;28;20025;-72
2022/12/13 07:07:06;;;;;;;68.83;23.33;;;;;;;-7.57;100.00;145542.59;5043423;28;20025;-72
2022/12/13 07:09:32;;;;;;;68.17;24.10;;;;;;;-7.53;100.00;145554.03;5038279;28;20045;-72
2022/12/13 07:11:58;;;;;;;79.33;24.50;;;;;;;-7.44;100.00;145575.69;5034072;28;20025;-72
2022/12/13 07:14:23;;;;;;;76.33;26.20;;;;;;;-7.46;100.00;145571.88;5032958;28;20036;-72
2022/12/13 07:16:49;;;;;;;74.13;24.60;;;;;;;-7.49;100.00;145562.97;5045997;28;20373;-72
2022/12/13 07:19:14;;;;;;;64.83;23.90;;;;;;;-7.50;100.00;145560.44;5050557;28;20024;-72
2022/12/13 07:21:40;;;;;;;70.00;23.47;;;;;;;-7.49;100.00;145564.25;5033366;28;20458;-72
2022/12/13 07:24:05;;;;;;;77.70;25.00;;;;;;;-7.42;100.00;145582.06;5033190;28;20508;-73
2022/12/13 07:26:31;;;;;;;69.10;24.70;;;;;;;-7.43;100.00;145578.25;5033164;28;20029;-73
2022/12/13 07:28:56;;;;;;;72.50;24.37;;;;;;;-7.39;100.00;145589.72;5033513;28;20025;-73
2022/12/13 07:31:23;;;;;;;65.83;25.13;;;;;;;-7.47;100.00;145568.06;5032077;28;20029;-73
2022/12/13 07:33:48;;;;;;;71.03;23.63;;;;;;;-7.46;100.00;145570.59;5043265;28;20548;-73
2022/12/13 07:36:17;;;;;;;73.77;24.30;;;;;;;-7.41;100.00;145583.31;5032576;28;20311;-73
2022/12/13 07:38:43;;;;;;;71.80;25.97;;;;;;;-7.33;100.00;145602.44;5034686;28;20106;-73
2022/12/13 07:41:09;;;;;;;76.77;26.57;;;;;;;-7.33;100.00;145603.72;5043137;28;20349;-73
2022/12/13 07:43:35;;;;;;;67.77;25.43;;;;;;;-7.30;100.00;145611.34;5039385;28;20718;-73
2022/12/13 07:46:05;;;;;;;78.47;26.80;;;;;;;-7.26;100.00;145620.31;5046810;28;20029;-73
2022/12/13 07:48:30;;;;;;;73.80;25.47;;;;;;;-7.22;100.00;145631.75;5037917;28;20781;-72
2022/12/13 07:51:10;;;;;;;69.13;25.17;;;;;;;-7.25;100.00;145624.13;5037112;28;20263;-72
2022/12/13 07:53:36;;;;;;;72.90;23.93;;;;;;;-7.26;100.00;145621.56;5051077;28;20036;-72
2022/12/13 07:56:06;;;;;;;68.03;24.83;;;;;;;-7.22;100.00;145630.47;5041075;28;20276;-71
2022/12/13 07:58:34;;;;;;;65.37;24.83;;;;;;;-7.07;100.00;145667.41;5042680;28;20579;-71
2022/12/13 08:01:04;;;;;;;71.93;25.90;;;;;;;-6.94;100.00;145701.81;5041040;28;20271;-72
2022/12/13 08:03:30;;;;;;;76.15;26.92;;;;;;;-6.92;100.00;145706.91;5042419;28;20653;-72
2022/12/13 08:06:04;;;;;;;73.63;25.37;;;;;;;-6.87;100.00;145718.41;5053741;28;20036;-72
2022/12/13 08:08:31;;;;;;;82.83;26.67;;;;;;;-6.79;100.00;145738.75;5052819;28;20020;-72
2022/12/13 08:11:11;;;;;;;80.33;26.17;;;;;;;-6.66;100.00;145771.94;5030693;28;20285;-72
2022/12/13 08:13:37;;;;;;;84.47;25.73;;;;;;;-6.58;100.00;145792.31;5036930;28;20333;-72
2022/12/13 08:16:06;;;;;;;73.07;25.87;;;;;;;-6.54;100.00;145802.53;5035683;28;20265;-72
2022/12/13 08:18:32;;;;;;;84.33;28.70;;;;;;;-6.26;100.00;145871.38;5041478;28;20648;-72
2022/12/13 08:21:03;;;;;;;76.27;28.30;;;;;;;-5.91;100.00;145960.66;5052593;28;20275;-72
2022/12/13 08:23:30;;;;;;;81.25;27.25;;;;;;;-5.28;100.00;146117.53;5045112;28;20739;-72
2022/12/13 08:25:56;;;;;;;88.70;30.17;;;;;;;-5.12;100.00;146158.38;5052424;28;20075;-72
2022/12/13 08:28:22;;;;;;;100.60;32.23;;;;;;;-4.95;100.00;146200.53;5032194;28;20328;-72
2022/12/13 08:30:49;;;;;;;84.37;29.57;;;;;;;-4.63;100.00;146279.69;5052603;28;20025;-72
2022/12/13 08:33:15;;;;;;;78.67;26.53;;;;;;;-4.43;100.00;146332.06;5052231;28;20355;-72
2022/12/13 08:35:40;;;;;;;85.33;27.60;;;;;;;-4.27;100.00;146371.66;5034209;28;20404;-72
2022/12/13 08:38:06;;;;;;;75.73;26.57;;;;;;;-4.06;100.00;146424.06;5051508;28;20468;-72
2022/12/13 08:40:31;;;;;;;79.43;27.17;;;;;;;-3.86;100.00;146475.19;5042846;28;20024;-73
2022/12/13 08:42:57;;;;;;;74.93;27.50;;;;;;;-3.80;100.00;146489.25;5064082;28;20024;-72
2022/12/13 08:45:26;;;;;;;79.37;27.60;;;;;;;-4.06;100.00;146422.78;5027899;28;20509;-72
2022/12/13 08:47:51;;;;;;;74.17;25.70;;;;;;;-4.04;100.00;146427.88;5044976;28;20042;-72
2022/12/13 08:50:17;;;;;;;76.03;26.90;;;;;;;-4.11;100.00;146410.03;5032192;28;20252;-72
2022/12/13 08:52:43;;;;;;;74.33;26.17;;;;;;;-4.08;100.00;146417.69;5043092;28;20067;-73
2022/12/13 08:55:11;;;;;;;73.80;27.43;;;;;;;-4.25;100.00;146376.75;5043273;28;20147;-72
2022/12/13 08:57:37;;;;;;;76.67;28.27;;;;;;;-4.46;100.00;146324.41;5035704;28;20309;-72
2022/12/13 09:00:08;;;;;;;75.97;27.80;;;;;;;-4.55;100.00;146300.13;5053120;28;20267;-72
2022/12/13 09:02:33;;;;;;;81.10;29.03;;;;;;;-4.58;100.00;146293.75;5054473;28;20333;-72
2022/12/13 09:04:59;;;;;;;80.13;28.27;;;;;;;-4.75;100.00;146251.56;5052936;28;20299;-72
2022/12/13 09:07:24;;;;;;;84.90;28.30;;;;;;;-4.96;100.00;146198.00;5071521;28;20666;-72
2022/12/13 09:09:49;;;;;;;79.77;28.83;;;;;;;-4.84;100.00;146227.34;5064835;28;20301;-72
2022/12/13 09:12:15;;;;;;;79.37;29.87;;;;;;;-4.67;100.00;146269.47;5071312;28;20040;-72
2022/12/13 09:14:40;;;;;;;82.80;28.57;;;;;;;-4.58;100.00;146293.75;5071505;28;20104;-72
2022/12/13 09:17:05;;;;;;;81.57;27.50;;;;;;;-4.50;100.00;146312.88;5049078;28;20500;-72
2022/12/13 09:19:31;;;;;;;92.73;31.30;;;;;;;-4.40;100.00;146338.44;5055271;28;20028;-72
2022/12/13 09:21:57;;;;;;;81.77;29.17;;;;;;;-4.31;100.00;146360.19;5051329;28;20031;-72
2022/12/13 09:24:22;;;;;;;84.67;29.40;;;;;;;-4.29;100.00;146366.56;5051402;28;20128;-72
2022/12/13 09:26:48;;;;;;;89.27;31.77;;;;;;;-4.37;100.00;146344.81;5051153;28;20030;-72
2022/12/13 09:29:15;;;;;;;81.63;28.10;;;;;;;-4.23;100.00;146381.91;5059526;28;20074;-72
2022/12/13 09:31:40;;;;;;;86.47;29.50;;;;;;;-4.20;100.00;146389.56;5067313;28;20066;-72
2022/12/13 09:34:06;;;;;;;79.97;25.87;;;;;;;-4.11;100.00;146411.31;5042765;28;20264;-72
2022/12/13 09:36:31;;;;;;;78.07;27.97;;;;;;;-4.04;100.00;146427.88;5037359;28;20424;-71
2022/12/13 09:38:58;;;;;;;85.30;29.70;;;;;;;-4.03;100.00;146430.44;5050731;28;20506;-72
2022/12/13 09:41:30;;;;;;;97.33;31.87;;;;;;;-4.01;100.00;146435.53;5050953;28;20086;-72
2022/12/13 09:44:04;;;;;;;89.70;32.10;;;;;;;-4.24;100.00;146379.34;5044285;28;20450;-72
2022/12/13 09:46:37;;;;;;;99.93;31.67;;;;;;;-4.31;100.00;146361.44;5034299;28;20346;-73
2022/12/13 09:49:10;;;;;;;88.73;30.80;;;;;;;-4.36;100.00;146348.69;5034874;28;20270;-72
2022/12/13 09:51:36;;;;;;;88.27;31.13;;;;;;;-4.39;100.00;146341.00;5066621;28;20292;-72
2022/12/13 09:54:01;;;;;;;85.90;31.80;;;;;;;-4.20;100.00;146389.56;5056252;28;20385;-72
2022/12/13 09:56:27;;;;;;;93.27;31.23;;;;;;;-4.26;100.00;146374.22;5070908;28;20387;-72
2022/12/13 09:58:55;;;;;;;96.87;32.70;;;;;;;-4.19;100.00;146392.13;5069699;28;20016;-72
2022/12/13 10:01:21;;;;;;;103.20;32.77;;;;;;;-3.93;100.00;146456.00;5062425;28;20059;-72
2022/12/13 10:03:49;;;;;;;101.87;33.37;;;;;;;-3.80;100.00;146489.25;5074763;28;20267;-72
2022/12/13 10:06:22;;;;;;;102.67;34.13;;;;;;;-3.77;100.00;146496.91;5074631;28;20287;-72
2022/12/13 10:08:50;;;;;;;96.87;33.27;;;;;;;-3.68;100.00;146518.66;5066208;28;20270;-73
2022/12/13 10:11:18;;;;;;;99.57;33.90;;;;;;;-3.75;100.00;146502.03;5054747;28;20346;-72
2022/12/13 10:13:46;;;;;;;93.90;32.00;;;;;;;-3.53;100.00;146556.97;5072033;28;20769;-72
2022/12/13 10:16:22;;;;;;;100.37;33.70;;;;;;;-3.40;100.00;146588.94;5074701;28;20337;-72
2022/12/13 10:18:48;;;;;;;96.50;35.03;;;;;;;-3.32;100.00;146609.44;5071780;28;20255;-73
2022/12/13 10:21:24;;;;;;;100.33;33.73;;;;;;;-3.28;100.00;146620.91;5053013;28;20360;-73
2022/12/13 10:23:50;;;;;;;111.17;36.30;;;;;;;-3.30;100.00;146614.53;5054921;28;20472;-72
2022/12/13 10:26:15;;;;;;;104.33;35.37;;;;;;;-3.32;100.00;146610.69;5056554;28;20279;-72
2022/12/13 10:28:41;;;;;;;107.53;34.43;;;;;;;-3.44;100.00;146578.72;5054674;28;20511;-73
2022/12/13 10:31:08;;;;;;;105.50;36.40;;;;;;;-3.32;100.00;146610.69;5054877;28;20025;-72
2022/12/13 10:33:37;;;;;;;106.43;35.90;;;;;;;-3.40;100.00;146588.94;5054403;28;20362;-72
2022/12/13 10:36:07;;;;;;;105.57;36.50;;;;;;;-3.38;100.00;146595.38;5054292;28;20299;-72
2022/12/13 10:38:41;;;;;;;108.87;37.07;;;;;;;-3.35;100.00;146601.75;5050199;28;20280;-72
2022/12/13 10:41:36;;;;;;;126.50;38.03;;;;;;;-3.24;100.00;146629.91;5034385;28;20723;-72
2022/12/13 10:44:11;;;;;;;113.30;37.50;;;;;;;-3.14;100.00;146655.50;5034431;28;20272;-73
2022/12/13 10:46:39;;;;;;;117.77;39.97;;;;;;;-3.02;100.00;146686.19;5045471;28;20283;-72
2022/12/13 10:49:21;;;;;;;111.37;36.97;;;;;;;-2.92;100.00;146709.19;5037361;28;20276;-73
2022/12/13 10:51:49;;;;;;;122.10;39.40;;;;;;;-2.80;100.00;146741.16;5047047;28;20270;-73
2022/12/13 10:54:25;;;;;;;123.17;41.10;;;;;;;-2.69;100.00;146768.03;5052484;28;20754;-72
2022/12/13 10:56:54;;;;;;;122.90;41.40;;;;;;;-2.63;100.00;146783.44;5055539;28;20267;-72
2022/12/13 10:59:35;;;;;;;120.70;40.83;;;;;;;-2.67;100.00;146773.16;5050258;28;20297;-72
2022/12/13 11:02:21;;;;;;;127.00;42.67;;;;;;;-2.56;100.00;146801.31;5047092;28;20265;-72
2022/12/13 11:04:46;;;;;;;139.50;43.17;;;;;;;-2.40;100.00;146842.31;5055912;28;20275;-73
2022/12/13 11:07:41;;;;;;;134.80;41.77;;;;;;;-2.43;100.00;146833.31;5055261;28;20632;-72
2022/12/13 11:10:22;;;;;;;134.47;43.40;;;;;;;-2.36;100.00;146852.53;5032274;28;20028;-73
2022/12/13 11:12:49;;;;;;;125.15;42.03;;;;;;;-2.35;100.00;146853.81;5051018;28;20286;-73